sensor_id;sensor_type;location;lat;lon;timestamp;pressure;altitude;pressure_sealevel;temperature;humidity
804;BME280;25687;49.976;8.240;2023-02-27T00:00:57;100917.50;;;-1.25;89.94
804;BME280;25687;49.976;8.240;2023-02-27T00:03:24;100914.16;;;-1.23;89.49
804;BME280;25687;49.976;8.240;2023-02-27T00:05:50;100912.53;;;-1.15;88.92
804;BME280;25687;49.976;8.240;2023-02-27T00:08:15;100915.84;;;-1.25;90.06
804;BME280;25687;49.976;8.240;2023-02-27T00:10:40;100921.63;;;-1.37;90.73
804;BME280;25687;49.976;8.240;2023-02-27T00:13:06;100916.59;;;-1.38;91.34
804;BME280;25687;49.976;8.240;2023-02-27T00:15:31;100912.41;;;-1.36;92.35
804;BME280;25687;49.976;8.240;2023-02-27T00:17:57;100914.06;;;-1.38;92.11
804;BME280;25687;49.976;8.240;2023-02-27T00:20:23;100912.38;;;-1.39;92.84
804;BME280;25687;49.976;8.240;2023-02-27T00:22:52;100919.84;;;-1.52;93.85
804;BME280;25687;49.976;8.240;2023-02-27T00:25:18;100915.72;;;-1.43;93.99
804;BME280;25687;49.976;8.240;2023-02-27T00:27:43;100912.38;;;-1.41;93.43
804;BME280;25687;49.976;8.240;2023-02-27T00:30:12;100910.66;;;-1.45;94.23
804;BME280;25687;49.976;8.240;2023-02-27T00:32:38;100910.63;;;-1.47;94.99
804;BME280;25687;49.976;8.240;2023-02-27T00:35:05;100911.44;;;-1.54;95.17
804;BME280;25687;49.976;8.240;2023-02-27T00:37:31;100921.53;;;-1.52;95.14
804;BME280;25687;49.976;8.240;2023-02-27T00:39:58;100915.63;;;-1.53;94.77
804;BME280;25687;49.976;8.240;2023-02-27T00:42:23;100923.19;;;-1.54;95.55
804;BME280;25687;49.976;8.240;2023-02-27T00:44:49;100917.31;;;-1.53;95.60
804;BME280;25687;49.976;8.240;2023-02-27T00:47:14;100918.13;;;-1.57;95.76
804;BME280;25687;49.976;8.240;2023-02-27T00:49:39;100922.31;;;-1.56;96.07
804;BME280;25687;49.976;8.240;2023-02-27T00:52:04;100919.78;;;-1.58;95.82
804;BME280;25687;49.976;8.240;2023-02-27T00:54:30;100915.63;;;-1.53;96.37
804;BME280;25687;49.976;8.240;2023-02-27T00:56:55;100916.38;;;-1.62;96.91
804;BME280;25687;49.976;8.240;2023-02-27T00:59:20;100917.28;;;-1.56;96.96
804;BME280;25687;49.976;8.240;2023-02-27T01:01:46;100911.44;;;-1.54;97.30
804;BME280;25687;49.976;8.240;2023-02-27T01:04:11;100918.97;;;-1.55;96.88
804;BME280;25687;49.976;8.240;2023-02-27T01:06:37;100918.13;;;-1.56;97.12
804;BME280;25687;49.976;8.240;2023-02-27T01:09:02;100917.31;;;-1.55;97.16
804;BME280;25687;49.976;8.240;2023-02-27T01:11:28;100913.09;;;-1.57;97.73
804;BME280;25687;49.976;8.240;2023-02-27T01:13:53;100916.44;;;-1.57;97.83
804;BME280;25687;49.976;8.240;2023-02-27T01:16:19;100921.47;;;-1.58;98.43
804;BME280;25687;49.976;8.240;2023-02-27T01:18:44;100919.75;;;-1.63;98.43
804;BME280;25687;49.976;8.240;2023-02-27T01:21:09;100917.25;;;-1.61;99.05
804;BME280;25687;49.976;8.240;2023-02-27T01:23:35;100912.97;;;-1.67;99.62
804;BME280;25687;49.976;8.240;2023-02-27T01:26:01;100916.31;;;-1.69;99.23
804;BME280;25687;49.976;8.240;2023-02-27T01:28:26;100915.50;;;-1.70;99.23
804;BME280;25687;49.976;8.240;2023-02-27T01:30:51;100913.81;;;-1.71;99.73
804;BME280;25687;49.976;8.240;2023-02-27T01:33:17;100914.69;;;-1.64;99.17
804;BME280;25687;49.976;8.240;2023-02-27T01:35:42;100915.56;;;-1.64;98.68
804;BME280;25687;49.976;8.240;2023-02-27T01:38:07;100910.56;;;-1.57;98.71
804;BME280;25687;49.976;8.240;2023-02-27T01:40:36;100914.72;;;-1.59;98.60
804;BME280;25687;49.976;8.240;2023-02-27T01:43:03;100916.38;;;-1.62;98.66
804;BME280;25687;49.976;8.240;2023-02-27T01:45:38;100905.50;;;-1.57;98.88
804;BME280;25687;49.976;8.240;2023-02-27T01:48:10;100917.31;;;-1.53;98.81
804;BME280;25687;49.976;8.240;2023-02-27T01:50:41;100905.53;;;-1.53;98.38
804;BME280;25687;49.976;8.240;2023-02-27T01:53:07;100913.09;;;-1.53;97.99
804;BME280;25687;49.976;8.240;2023-02-27T01:55:35;100905.50;;;-1.56;98.77
804;BME280;25687;49.976;8.240;2023-02-27T01:58:06;100908.03;;;-1.54;98.40
804;BME280;25687;49.976;8.240;2023-02-27T02:00:32;100896.25;;;-1.57;98.73
804;BME280;25687;49.976;8.240;2023-02-27T02:05:29;100894.56;;;-1.58;98.84
804;BME280;25687;49.976;8.240;2023-02-27T02:07:56;100907.22;;;-1.55;98.27
804;BME280;25687;49.976;8.240;2023-02-27T02:10:21;100903.81;;;-1.55;98.31
804;BME280;25687;49.976;8.240;2023-02-27T02:12:47;100902.13;;;-1.59;98.57
804;BME280;25687;49.976;8.240;2023-02-27T02:15:12;100891.97;;;-1.64;98.66
804;BME280;25687;49.976;8.240;2023-02-27T02:18:15;100897.03;;;-1.66;98.96
804;BME280;25687;49.976;8.240;2023-02-27T02:35:04;100900.38;;;-1.68;96.83
804;BME280;25687;49.976;8.240;2023-02-27T02:40:38;100901.19;;;-1.72;96.28
804;BME280;25687;49.976;8.240;2023-02-27T02:43:24;100902.03;;;-1.70;96.12
804;BME280;25687;49.976;8.240;2023-02-27T02:46:01;100897.88;;;-1.64;94.71
804;BME280;25687;49.976;8.240;2023-02-27T02:48:33;100899.56;;;-1.63;93.80
804;BME280;25687;49.976;8.240;2023-02-27T02:51:09;100900.41;;;-1.62;93.97
804;BME280;25687;49.976;8.240;2023-02-27T02:54:01;100901.22;;;-1.66;94.41
804;BME280;25687;49.976;8.240;2023-02-27T02:56:35;100899.50;;;-1.69;94.41
804;BME280;25687;49.976;8.240;2023-02-27T02:59:15;100907.84;;;-1.77;95.35
804;BME280;25687;49.976;8.240;2023-02-27T03:01:47;100904.50;;;-1.75;95.04
804;BME280;25687;49.976;8.240;2023-02-27T03:04:27;100905.34;;;-1.74;95.43
804;BME280;25687;49.976;8.240;2023-02-27T03:07:19;100911.16;;;-1.82;96.30
804;BME280;25687;49.976;8.240;2023-02-27T03:12:20;100907.84;;;-1.77;95.77
804;BME280;25687;49.976;8.240;2023-02-27T03:14:54;100904.47;;;-1.78;95.70
804;BME280;25687;49.976;8.240;2023-02-27T03:17:34;100908.69;;;-1.79;95.27
804;BME280;25687;49.976;8.240;2023-02-27T03:20:06;100917.09;;;-1.80;95.00
804;BME280;25687;49.976;8.240;2023-02-27T03:22:37;100906.19;;;-1.75;94.73
804;BME280;25687;49.976;8.240;2023-02-27T03:25:06;100911.19;;;-1.80;95.69
804;BME280;25687;49.976;8.240;2023-02-27T03:27:36;100909.56;;;-1.73;94.17
804;BME280;25687;49.976;8.240;2023-02-27T03:30:15;100912.88;;;-1.77;94.17
804;BME280;25687;49.976;8.240;2023-02-27T03:32:56;100911.16;;;-1.83;94.83
804;BME280;25687;49.976;8.240;2023-02-27T03:35:31;100908.69;;;-1.79;94.20
804;BME280;25687;49.976;8.240;2023-02-27T03:38:07;100912.00;;;-1.84;94.64
804;BME280;25687;49.976;8.240;2023-02-27T03:40:46;100911.16;;;-1.85;94.88
804;BME280;25687;49.976;8.240;2023-02-27T03:44:13;100916.97;;;-1.87;94.55
804;BME280;25687;49.976;8.240;2023-02-27T03:46:19;100916.97;;;-1.90;95.15
804;BME280;25687;49.976;8.240;2023-02-27T03:48:45;100923.72;;;-1.88;94.84
804;BME280;25687;49.976;8.240;2023-02-27T03:51:12;100926.25;;;-1.86;93.17
804;BME280;25687;49.976;8.240;2023-02-27T03:56:31;100929.66;;;-1.84;92.23
804;BME280;25687;49.976;8.240;2023-02-27T03:58:59;100922.09;;;-1.83;93.11
804;BME280;25687;49.976;8.240;2023-02-27T04:01:24;100926.31;;;-1.80;91.34
804;BME280;25687;49.976;8.240;2023-02-27T04:03:55;100937.28;;;-1.76;89.91
804;BME280;25687;49.976;8.240;2023-02-27T04:06:23;100936.38;;;-1.82;90.95
804;BME280;25687;49.976;8.240;2023-02-27T04:14:37;100943.88;;;-1.91;91.59
804;BME280;25687;49.976;8.240;2023-02-27T04:17:31;100958.13;;;-1.95;92.28
804;BME280;25687;49.976;8.240;2023-02-27T04:22:46;100946.34;;;-1.97;91.66
804;BME280;25687;49.976;8.240;2023-02-27T04:25:30;100951.38;;;-1.97;91.44
804;BME280;25687;49.976;8.240;2023-02-27T04:28:17;100951.38;;;-1.97;91.04
804;BME280;25687;49.976;8.240;2023-02-27T04:31:00;100952.22;;;-1.95;90.41
804;BME280;25687;49.976;8.240;2023-02-27T04:33:32;100953.91;;;-1.97;90.76
804;BME280;25687;49.976;8.240;2023-02-27T04:38:53;100958.91;;;-1.99;90.39
804;BME280;25687;49.976;8.240;2023-02-27T04:41:28;100957.25;;;-2.00;90.85
804;BME280;25687;49.976;8.240;2023-02-27T04:43:55;100963.94;;;-1.99;90.93
804;BME280;25687;49.976;8.240;2023-02-27T04:46:25;100963.13;;;-1.98;89.99
804;BME280;25687;49.976;8.240;2023-02-27T04:48:57;100963.94;;;-2.02;90.38
804;BME280;25687;49.976;8.240;2023-02-27T04:51:34;100968.16;;;-2.01;90.29
804;BME280;25687;49.976;8.240;2023-02-27T04:54:12;100970.69;;;-1.98;89.04
804;BME280;25687;49.976;8.240;2023-02-27T04:56:43;100967.34;;;-1.95;89.42
804;BME280;25687;49.976;8.240;2023-02-27T04:59:15;100968.09;;;-2.02;90.17
804;BME280;25687;49.976;8.240;2023-02-27T05:02:06;100968.16;;;-1.99;88.97
804;BME280;25687;49.976;8.240;2023-02-27T05:04:36;100966.44;;;-2.02;89.72
804;BME280;25687;49.976;8.240;2023-02-27T05:07:04;100971.47;;;-2.03;89.15
804;BME280;25687;49.976;8.240;2023-02-27T05:09:41;100969.00;;;-1.99;88.52
804;BME280;25687;49.976;8.240;2023-02-27T05:12:18;100974.00;;;-2.02;88.26
804;BME280;25687;49.976;8.240;2023-02-27T05:14:58;100968.97;;;-2.02;88.66
804;BME280;25687;49.976;8.240;2023-02-27T05:19:57;100975.56;;;-2.13;89.81
804;BME280;25687;49.976;8.240;2023-02-27T05:25:19;100986.53;;;-2.09;89.61
804;BME280;25687;49.976;8.240;2023-02-27T05:27:51;100985.66;;;-2.13;90.53
804;BME280;25687;49.976;8.240;2023-02-27T05:36:09;100993.28;;;-2.07;90.18
804;BME280;25687;49.976;8.240;2023-02-27T05:38:39;100999.97;;;-2.09;90.59
804;BME280;25687;49.976;8.240;2023-02-27T05:41:32;100996.56;;;-2.14;91.71
804;BME280;25687;49.976;8.240;2023-02-27T05:44:20;101010.00;;;-2.14;91.15
804;BME280;25687;49.976;8.240;2023-02-27T05:47:03;101003.31;;;-2.10;91.25
804;BME280;25687;49.976;8.240;2023-02-27T05:49:37;101005.03;;;-2.07;90.18
804;BME280;25687;49.976;8.240;2023-02-27T05:52:09;101008.34;;;-2.13;91.38
804;BME280;25687;49.976;8.240;2023-02-27T05:55:05;101011.66;;;-2.16;91.41
804;BME280;25687;49.976;8.240;2023-02-27T05:57:44;101001.63;;;-2.13;90.99
804;BME280;25687;49.976;8.240;2023-02-27T06:00:26;101016.75;;;-2.13;90.96
804;BME280;25687;49.976;8.240;2023-02-27T06:02:55;101020.94;;;-2.13;91.57
804;BME280;25687;49.976;8.240;2023-02-27T06:05:20;101010.94;;;-2.05;90.66
804;BME280;25687;49.976;8.240;2023-02-27T06:07:46;101008.41;;;-2.07;91.50
804;BME280;25687;49.976;8.240;2023-02-27T06:10:14;101014.28;;;-2.09;91.52
804;BME280;25687;49.976;8.240;2023-02-27T06:12:39;101021.84;;;-2.06;91.54
804;BME280;25687;49.976;8.240;2023-02-27T06:15:05;101027.72;;;-2.09;92.26
804;BME280;25687;49.976;8.240;2023-02-27T06:17:30;101021.84;;;-2.09;93.04
804;BME280;25687;49.976;8.240;2023-02-27T06:19:56;101028.53;;;-2.10;92.93
804;BME280;25687;49.976;8.240;2023-02-27T06:22:21;101024.31;;;-2.13;93.36
804;BME280;25687;49.976;8.240;2023-02-27T06:24:46;101031.94;;;-2.05;93.67
804;BME280;25687;49.976;8.240;2023-02-27T06:27:11;101029.47;;;-2.03;93.16
804;BME280;25687;49.976;8.240;2023-02-27T06:29:37;101035.34;;;-2.04;93.55
804;BME280;25687;49.976;8.240;2023-02-27T06:32:02;101034.50;;;-2.03;94.41
804;BME280;25687;49.976;8.240;2023-02-27T06:34:27;101037.94;;;-1.98;94.14
804;BME280;25687;49.976;8.240;2023-02-27T06:36:52;101039.66;;;-1.94;94.39
804;BME280;25687;49.976;8.240;2023-02-27T06:39:18;101041.34;;;-1.95;94.57
804;BME280;25687;49.976;8.240;2023-02-27T06:41:43;101034.75;;;-1.83;93.27
804;BME280;25687;49.976;8.240;2023-02-27T06:44:09;101039.88;;;-1.75;92.68
804;BME280;25687;49.976;8.240;2023-02-27T06:46:34;101034.84;;;-1.74;92.57
804;BME280;25687;49.976;8.240;2023-02-27T06:48:59;101033.19;;;-1.73;92.55
804;BME280;25687;49.976;8.240;2023-02-27T06:51:24;101038.31;;;-1.66;92.69
804;BME280;25687;49.976;8.240;2023-02-27T06:53:50;101042.53;;;-1.65;91.88
804;BME280;25687;49.976;8.240;2023-02-27T06:56:15;101041.69;;;-1.64;93.05
804;BME280;25687;49.976;8.240;2023-02-27T06:58:40;101045.97;;;-1.56;92.08
804;BME280;25687;49.976;8.240;2023-02-27T07:01:06;101041.75;;;-1.57;92.46
804;BME280;25687;49.976;8.240;2023-02-27T07:03:31;101048.47;;;-1.56;92.06
804;BME280;25687;49.976;8.240;2023-02-27T07:05:57;101051.06;;;-1.53;91.51
804;BME280;25687;49.976;8.240;2023-02-27T07:08:22;101039.31;;;-1.48;91.81
804;BME280;25687;49.976;8.240;2023-02-27T07:10:48;101045.22;;;-1.48;91.65
804;BME280;25687;49.976;8.240;2023-02-27T07:13:14;101055.41;;;-1.37;92.22
804;BME280;25687;49.976;8.240;2023-02-27T07:15:39;101067.34;;;-1.22;91.78
804;BME280;25687;49.976;8.240;2023-02-27T07:18:05;101052.34;;;-1.03;90.22
804;BME280;25687;49.976;8.240;2023-02-27T07:20:30;101057.09;;;-0.26;84.86
804;BME280;25687;49.976;8.240;2023-02-27T07:22:56;101057.38;;;0.36;79.48
804;BME280;25687;49.976;8.240;2023-02-27T07:25:21;101050.72;;;0.76;73.42
804;BME280;25687;49.976;8.240;2023-02-27T07:27:46;101048.19;;;0.96;71.46
804;BME280;25687;49.976;8.240;2023-02-27T07:30:14;101047.34;;;1.24;68.96
804;BME280;25687;49.976;8.240;2023-02-27T07:32:39;101047.28;;;1.67;67.21
804;BME280;25687;49.976;8.240;2023-02-27T07:35:05;101043.03;;;1.80;64.63
804;BME280;25687;49.976;8.240;2023-02-27T07:37:30;101054.09;;;1.40;68.10
804;BME280;25687;49.976;8.240;2023-02-27T07:39:56;101052.44;;;1.25;67.94
804;BME280;25687;49.976;8.240;2023-02-27T07:42:21;101048.22;;;0.93;70.57
804;BME280;25687;49.976;8.240;2023-02-27T07:44:46;101051.56;;;0.75;72.77
804;BME280;25687;49.976;8.240;2023-02-27T07:47:12;101075.06;;;0.22;76.34
804;BME280;25687;49.976;8.240;2023-02-27T07:49:37;101068.16;;;-0.13;79.95
804;BME280;25687;49.976;8.240;2023-02-27T07:52:02;101072.28;;;-0.29;83.58
804;BME280;25687;49.976;8.240;2023-02-27T07:54:27;101065.53;;;-0.32;83.63
804;BME280;25687;49.976;8.240;2023-02-27T07:56:53;101057.03;;;-0.39;84.80
804;BME280;25687;49.976;8.240;2023-02-27T07:59:18;101083.94;;;-0.50;85.22
804;BME280;25687;49.976;8.240;2023-02-27T08:01:43;101062.84;;;-0.54;85.89
804;BME280;25687;49.976;8.240;2023-02-27T08:04:08;101073.78;;;-0.58;85.80
804;BME280;25687;49.976;8.240;2023-02-27T08:06:34;101072.09;;;-0.57;85.30
804;BME280;25687;49.976;8.240;2023-02-27T08:08:59;101073.78;;;-0.59;85.85
804;BME280;25687;49.976;8.240;2023-02-27T08:11:25;101073.78;;;-0.56;86.52
804;BME280;25687;49.976;8.240;2023-02-27T08:13:50;101074.66;;;-0.51;86.05
804;BME280;25687;49.976;8.240;2023-02-27T08:16:16;101083.94;;;-0.49;85.78
804;BME280;25687;49.976;8.240;2023-02-27T08:18:42;101110.00;;;-0.59;86.60
804;BME280;25687;49.976;8.240;2023-02-27T08:21:07;101080.53;;;-0.54;88.07
804;BME280;25687;49.976;8.240;2023-02-27T08:23:32;101084.84;;;-0.42;87.31
804;BME280;25687;49.976;8.240;2023-02-27T08:25:59;101077.28;;;-0.36;87.03
804;BME280;25687;49.976;8.240;2023-02-27T08:28:25;101104.28;;;-0.30;84.83
804;BME280;25687;49.976;8.240;2023-02-27T08:30:51;101080.81;;;-0.13;84.32
804;BME280;25687;49.976;8.240;2023-02-27T08:33:16;101088.31;;;-0.21;82.85
804;BME280;25687;49.976;8.240;2023-02-27T08:35:42;101095.00;;;-0.37;81.78
804;BME280;25687;49.976;8.240;2023-02-27T08:38:08;101091.59;;;-0.36;84.12
804;BME280;25687;49.976;8.240;2023-02-27T08:40:34;101085.72;;;-0.35;85.30
804;BME280;25687;49.976;8.240;2023-02-27T08:42:59;101090.84;;;-0.21;85.42
804;BME280;25687;49.976;8.240;2023-02-27T08:45:25;101100.00;;;-0.39;82.80
804;BME280;25687;49.976;8.240;2023-02-27T08:47:51;101083.19;;;-0.35;83.24
804;BME280;25687;49.976;8.240;2023-02-27T08:50:16;101085.78;;;-0.24;83.02
804;BME280;25687;49.976;8.240;2023-02-27T08:52:41;101078.22;;;-0.21;82.06
804;BME280;25687;49.976;8.240;2023-02-27T08:55:07;101094.22;;;-0.24;80.76
804;BME280;25687;49.976;8.240;2023-02-27T08:57:32;101079.00;;;-0.30;81.89
804;BME280;25687;49.976;8.240;2023-02-27T08:59:57;101084.06;;;-0.33;82.49
804;BME280;25687;49.976;8.240;2023-02-27T09:02:23;101082.41;;;-0.28;83.17
804;BME280;25687;49.976;8.240;2023-02-27T09:04:51;101096.69;;;-0.33;82.26
804;BME280;25687;49.976;8.240;2023-02-27T09:07:16;101083.19;;;-0.38;81.99
804;BME280;25687;49.976;8.240;2023-02-27T09:09:42;101080.78;;;-0.18;82.77
804;BME280;25687;49.976;8.240;2023-02-27T09:12:07;101083.28;;;-0.15;83.83
804;BME280;25687;49.976;8.240;2023-02-27T09:14:32;101090.16;;;0.06;82.00
804;BME280;25687;49.976;8.240;2023-02-27T09:16:57;101102.78;;;0.02;81.18
804;BME280;25687;49.976;8.240;2023-02-27T09:19:23;101104.59;;;0.32;79.89
804;BME280;25687;49.976;8.240;2023-02-27T09:21:48;101096.34;;;1.48;70.94
804;BME280;25687;49.976;8.240;2023-02-27T09:24:13;101094.56;;;1.93;65.74
804;BME280;25687;49.976;8.240;2023-02-27T09:26:39;101091.13;;;2.17;63.43
804;BME280;25687;49.976;8.240;2023-02-27T09:29:04;101098.41;;;2.81;60.90
804;BME280;25687;49.976;8.240;2023-02-27T09:31:29;101096.66;;;2.89;59.02
804;BME280;25687;49.976;8.240;2023-02-27T09:33:55;101100.22;;;2.63;59.11
804;BME280;25687;49.976;8.240;2023-02-27T09:36:22;101098.31;;;2.95;58.63
804;BME280;25687;49.976;8.240;2023-02-27T09:38:47;101105.53;;;3.46;55.49
804;BME280;25687;49.976;8.240;2023-02-27T09:41:30;101107.16;;;3.58;54.25
804;BME280;25687;49.976;8.240;2023-02-27T09:43:58;101112.03;;;3.78;53.94
804;BME280;25687;49.976;8.240;2023-02-27T09:46:27;101108.44;;;3.99;53.45
804;BME280;25687;49.976;8.240;2023-02-27T09:48:56;101115.00;;;3.31;55.02
804;BME280;25687;49.976;8.240;2023-02-27T09:51:23;101116.47;;;3.59;54.64
804;BME280;25687;49.976;8.240;2023-02-27T09:53:50;101116.53;;;3.49;54.39
804;BME280;25687;49.976;8.240;2023-02-27T09:59:30;101143.94;;;3.16;54.43
804;BME280;25687;49.976;8.240;2023-02-27T10:01:48;101125.88;;;3.49;54.84
804;BME280;25687;49.976;8.240;2023-02-27T10:04:38;101115.34;;;3.86;53.22
804;BME280;25687;49.976;8.240;2023-02-27T10:07:30;101128.56;;;4.20;52.55
804;BME280;25687;49.976;8.240;2023-02-27T10:15:33;101136.31;;;4.10;52.48
804;BME280;25687;49.976;8.240;2023-02-27T10:18:16;101152.19;;;3.45;54.01
804;BME280;25687;49.976;8.240;2023-02-27T10:20:53;101133.72;;;3.22;55.01
804;BME280;25687;49.976;8.240;2023-02-27T10:26:10;101151.53;;;3.21;55.01
804;BME280;25687;49.976;8.240;2023-02-27T10:28:42;101149.50;;;2.13;59.59
804;BME280;25687;49.976;8.240;2023-02-27T10:31:15;101148.66;;;2.06;63.97
804;BME280;25687;49.976;8.240;2023-02-27T10:33:42;101153.81;;;1.67;65.85
804;BME280;25687;49.976;8.240;2023-02-27T10:36:09;101140.28;;;1.45;70.27
804;BME280;25687;49.976;8.240;2023-02-27T10:38:43;101140.28;;;1.39;74.92
804;BME280;25687;49.976;8.240;2023-02-27T10:41:12;101163.97;;;1.33;73.22
804;BME280;25687;49.976;8.240;2023-02-27T10:43:39;101136.09;;;1.39;75.18
804;BME280;25687;49.976;8.240;2023-02-27T10:46:16;101138.63;;;1.39;74.74
804;BME280;25687;49.976;8.240;2023-02-27T10:48:43;101166.44;;;1.04;77.52
804;BME280;25687;49.976;8.240;2023-02-27T10:51:21;101142.81;;;1.03;79.17
804;BME280;25687;49.976;8.240;2023-02-27T10:53:48;101131.00;;;1.47;75.91
804;BME280;25687;49.976;8.240;2023-02-27T10:56:25;101147.91;;;1.17;76.72
804;BME280;25687;49.976;8.240;2023-02-27T10:59:06;101131.81;;;1.03;78.05
804;BME280;25687;49.976;8.240;2023-02-27T11:01:43;101138.59;;;1.07;79.60
804;BME280;25687;49.976;8.240;2023-02-27T11:04:10;101153.81;;;1.16;78.12
804;BME280;25687;49.976;8.240;2023-02-27T11:06:36;101130.91;;;0.71;76.05
804;BME280;25687;49.976;8.240;2023-02-27T11:09:19;101145.25;;;0.75;79.48
804;BME280;25687;49.976;8.240;2023-02-27T11:11:45;101138.44;;;0.51;80.43
804;BME280;25687;49.976;8.240;2023-02-27T11:14:28;101125.84;;;0.79;80.54
804;BME280;25687;49.976;8.240;2023-02-27T11:16:59;101143.63;;;0.93;78.28
804;BME280;25687;49.976;8.240;2023-02-27T11:19:35;101123.34;;;0.87;79.02
804;BME280;25687;49.976;8.240;2023-02-27T11:22:15;101130.09;;;0.78;78.02
804;BME280;25687;49.976;8.240;2023-02-27T11:24:41;101109.00;;;0.95;78.96
804;BME280;25687;49.976;8.240;2023-02-27T11:27:23;101107.31;;;1.06;75.13
804;BME280;25687;49.976;8.240;2023-02-27T11:30:02;101106.50;;;1.34;73.41
804;BME280;25687;49.976;8.240;2023-02-27T11:32:42;101110.72;;;1.30;72.62
804;BME280;25687;49.976;8.240;2023-02-27T11:35:38;101109.03;;;1.26;70.85
804;BME280;25687;49.976;8.240;2023-02-27T11:38:06;101117.47;;;1.14;71.96
804;BME280;25687;49.976;8.240;2023-02-27T11:40:48;101101.44;;;1.31;72.19
804;BME280;25687;49.976;8.240;2023-02-27T11:43:20;101107.31;;;1.14;71.97
804;BME280;25687;49.976;8.240;2023-02-27T11:45:53;101103.94;;;1.03;73.29
804;BME280;25687;49.976;8.240;2023-02-27T11:48:35;101094.66;;;1.19;70.78
804;BME280;25687;49.976;8.240;2023-02-27T11:51:17;101101.41;;;1.51;69.20
804;BME280;25687;49.976;8.240;2023-02-27T11:56:34;101108.97;;;1.92;67.02
804;BME280;25687;49.976;8.240;2023-02-27T11:59:04;101087.03;;;1.68;67.70
804;BME280;25687;49.976;8.240;2023-02-27T12:07:20;101086.94;;;2.02;66.37
804;BME280;25687;49.976;8.240;2023-02-27T12:12:32;101081.81;;;2.16;63.89
804;BME280;25687;49.976;8.240;2023-02-27T12:16:10;101076.66;;;2.33;61.82
804;BME280;25687;49.976;8.240;2023-02-27T12:18:40;101066.50;;;2.35;60.87
804;BME280;25687;49.976;8.240;2023-02-27T12:21:20;101062.16;;;2.49;61.10
804;BME280;25687;49.976;8.240;2023-02-27T12:23:52;101067.31;;;2.37;60.73
804;BME280;25687;49.976;8.240;2023-02-27T12:26:26;101055.50;;;2.31;61.57
804;BME280;25687;49.976;8.240;2023-02-27T12:32:09;101048.69;;;2.41;60.70
804;BME280;25687;49.976;8.240;2023-02-27T12:35:15;101047.81;;;2.45;60.28
804;BME280;25687;49.976;8.240;2023-02-27T12:37:32;101038.41;;;2.64;59.30
804;BME280;25687;49.976;8.240;2023-02-27T12:39:59;101040.97;;;2.60;59.03
804;BME280;25687;49.976;8.240;2023-02-27T12:42:51;101039.16;;;2.76;58.39
804;BME280;25687;49.976;8.240;2023-02-27T12:56:34;101024.13;;;3.47;55.46
804;BME280;25687;49.976;8.240;2023-02-27T12:59:20;101029.03;;;3.67;53.38
804;BME280;25687;49.976;8.240;2023-02-27T13:02:02;101026.47;;;3.66;51.93
804;BME280;25687;49.976;8.240;2023-02-27T13:04:44;101022.41;;;3.52;52.03
804;BME280;25687;49.976;8.240;2023-02-27T13:07:41;101026.94;;;3.19;51.93
804;BME280;25687;49.976;8.240;2023-02-27T13:10:18;101038.63;;;3.39;52.28
804;BME280;25687;49.976;8.240;2023-02-27T13:12:51;101038.75;;;3.27;51.98
804;BME280;25687;49.976;8.240;2023-02-27T13:15:25;101015.97;;;3.14;51.64
804;BME280;25687;49.976;8.240;2023-02-27T13:17:57;101019.34;;;3.15;50.82
804;BME280;25687;49.976;8.240;2023-02-27T13:20:31;101017.84;;;2.97;52.53
804;BME280;25687;49.976;8.240;2023-02-27T13:26:21;101012.63;;;3.07;50.79
804;BME280;25687;49.976;8.240;2023-02-27T13:28:49;101015.16;;;3.12;50.71
804;BME280;25687;49.976;8.240;2023-02-27T13:34:25;101009.16;;;3.19;50.61
804;BME280;25687;49.976;8.240;2023-02-27T13:36:56;101014.25;;;3.19;50.73
804;BME280;25687;49.976;8.240;2023-02-27T13:42:00;101013.75;;;2.76;51.02
804;BME280;25687;49.976;8.240;2023-02-27T13:46:51;101016.66;;;3.32;49.96
804;BME280;25687;49.976;8.240;2023-02-27T13:49:24;101023.44;;;3.33;49.36
804;BME280;25687;49.976;8.240;2023-02-27T13:51:51;101014.09;;;3.36;48.96
804;BME280;25687;49.976;8.240;2023-02-27T13:54:27;101020.91;;;3.30;48.62
804;BME280;25687;49.976;8.240;2023-02-27T13:59:36;101006.63;;;3.18;48.58
804;BME280;25687;49.976;8.240;2023-02-27T14:04:46;101013.44;;;3.14;48.46
804;BME280;25687;49.976;8.240;2023-02-27T14:07:16;101012.66;;;3.09;48.15
804;BME280;25687;49.976;8.240;2023-02-27T14:09:44;101011.66;;;3.21;48.22
804;BME280;25687;49.976;8.240;2023-02-27T14:14:58;101018.50;;;3.19;48.05
804;BME280;25687;49.976;8.240;2023-02-27T14:23:20;101011.34;;;3.55;46.59
804;BME280;25687;49.976;8.240;2023-02-27T14:25:37;101018.97;;;3.55;46.07
804;BME280;25687;49.976;8.240;2023-02-27T14:28:03;101015.81;;;3.33;45.47
804;BME280;25687;49.976;8.240;2023-02-27T14:30:35;101016.84;;;3.13;45.24
804;BME280;25687;49.976;8.240;2023-02-27T14:33:10;101015.16;;;3.12;45.30
804;BME280;25687;49.976;8.240;2023-02-27T14:35:37;101010.13;;;3.06;45.90
804;BME280;25687;49.976;8.240;2023-02-27T14:38:07;101008.38;;;3.11;45.82
804;BME280;25687;49.976;8.240;2023-02-27T14:40:39;101015.00;;;3.26;45.92
804;BME280;25687;49.976;8.240;2023-02-27T14:43:21;101009.69;;;3.52;45.82
804;BME280;25687;49.976;8.240;2023-02-27T14:45:51;101017.94;;;3.71;45.73
804;BME280;25687;49.976;8.240;2023-02-27T14:48:25;101016.28;;;3.69;44.99
804;BME280;25687;49.976;8.240;2023-02-27T14:50:52;101009.34;;;3.80;46.20
804;BME280;25687;49.976;8.240;2023-02-27T14:53:25;101016.81;;;3.94;45.03
804;BME280;25687;49.976;8.240;2023-02-27T14:55:56;101021.19;;;3.84;44.56
804;BME280;25687;49.976;8.240;2023-02-27T14:58:23;101008.66;;;3.67;45.41
804;BME280;25687;49.976;8.240;2023-02-27T15:03:25;101005.25;;;3.67;45.12
804;BME280;25687;49.976;8.240;2023-02-27T15:05:54;101012.13;;;3.62;45.05
804;BME280;25687;49.976;8.240;2023-02-27T15:08:28;101015.63;;;3.48;45.38
804;BME280;25687;49.976;8.240;2023-02-27T15:10:56;101016.44;;;3.55;46.10
804;BME280;25687;49.976;8.240;2023-02-27T15:13:35;101018.06;;;3.61;45.66
804;BME280;25687;49.976;8.240;2023-02-27T15:18:53;101010.81;;;3.25;46.08
804;BME280;25687;49.976;8.240;2023-02-27T15:21:22;101008.25;;;3.25;46.06
804;BME280;25687;49.976;8.240;2023-02-27T15:23:59;101020.13;;;3.25;45.82
804;BME280;25687;49.976;8.240;2023-02-27T15:26:26;101013.25;;;3.34;46.17
804;BME280;25687;49.976;8.240;2023-02-27T15:28:54;101012.44;;;3.31;45.80